sensor_id;sensor_type;location;lat;lon;timestamp;pressure;altitude;pressure_sealevel;temperature;humidity
77149;BME280;66122;47.130;16.844;2023-08-08T00:07:53;99905.00;;;11.37;100.00
77149;BME280;66122;47.130;16.844;2023-08-08T00:17:56;99918.88;;;11.42;100.00
77149;BME280;66122;47.130;16.844;2023-08-08T00:27:59;99898.00;;;11.03;100.00
77149;BME280;66122;47.130;16.844;2023-08-08T00:38:08;99872.94;;;10.76;100.00
77149;BME280;66122;47.130;16.844;2023-08-08T00:48:12;99881.97;;;11.22;100.00
77149;BME280;66122;47.130;16.844;2023-08-08T00:58:16;99898.84;;;11.04;100.00
77149;BME280;66122;47.130;16.844;2023-08-08T01:08:35;99890.28;;;10.66;100.00
77149;BME280;66122;47.130;16.844;2023-08-08T01:18:47;99910.78;;;10.28;100.00
77149;BME280;66122;47.130;16.844;2023-08-08T01:28:53;99907.19;;;10.46;100.00
77149;BME280;66122;47.130;16.844;2023-08-08T01:39:01;99909.53;;;10.52;100.00
77149;BME280;66122;47.130;16.844;2023-08-08T01:49:07;99888.41;;;10.68;100.00
77149;BME280;66122;47.130;16.844;2023-08-08T01:59:12;99917.47;;;10.52;100.00
77149;BME280;66122;47.130;16.844;2023-08-08T02:09:17;99930.25;;;10.78;100.00
77149;BME280;66122;47.130;16.844;2023-08-08T02:19:23;99894.88;;;10.79;100.00
77149;BME280;66122;47.130;16.844;2023-08-08T02:29:25;99894.22;;;10.74;100.00
77149;BME280;66122;47.130;16.844;2023-08-08T02:39:32;99905.88;;;10.54;100.00
77149;BME280;66122;47.130;16.844;2023-08-08T02:49:36;99928.28;;;10.82;100.00
77149;BME280;66122;47.130;16.844;2023-08-08T02:59:39;99915.91;;;10.82;100.00
77149;BME280;66122;47.130;16.844;2023-08-08T03:09:44;99941.16;;;10.89;100.00
77149;BME280;66122;47.130;16.844;2023-08-08T03:19:47;99940.41;;;10.53;100.00
77149;BME280;66122;47.130;16.844;2023-08-08T03:29:51;99946.00;;;10.81;100.00
77149;BME280;66122;47.130;16.844;2023-08-08T03:39:54;99978.59;;;11.01;100.00
77149;BME280;66122;47.130;16.844;2023-08-08T03:49:58;99949.19;;;10.88;100.00
77149;BME280;66122;47.130;16.844;2023-08-08T04:00:02;99955.97;;;10.76;100.00
77149;BME280;66122;47.130;16.844;2023-08-08T04:10:15;99972.16;;;11.22;100.00
77149;BME280;66122;47.130;16.844;2023-08-08T04:20:18;99971.03;;;11.59;100.00
77149;BME280;66122;47.130;16.844;2023-08-08T04:30:24;99965.75;;;11.90;100.00
77149;BME280;66122;47.130;16.844;2023-08-08T04:40:26;99971.09;;;11.57;100.00
77149;BME280;66122;47.130;16.844;2023-08-08T04:50:31;99965.69;;;11.92;100.00
77149;BME280;66122;47.130;16.844;2023-08-08T05:00:34;99997.19;;;12.13;100.00
77149;BME280;66122;47.130;16.844;2023-08-08T05:10:38;99989.22;;;12.29;100.00
77149;BME280;66122;47.130;16.844;2023-08-08T05:20:41;99994.47;;;13.35;100.00
77149;BME280;66122;47.130;16.844;2023-08-08T05:30:43;99970.72;;;12.87;100.00
77149;BME280;66122;47.130;16.844;2023-08-08T05:40:46;100029.75;;;13.81;100.00
77149;BME280;66122;47.130;16.844;2023-08-08T05:50:49;100004.22;;;14.46;98.62
77149;BME280;66122;47.130;16.844;2023-08-08T06:00:52;100008.16;;;14.80;95.75
77149;BME280;66122;47.130;16.844;2023-08-08T06:10:55;100016.41;;;14.90;92.57
77149;BME280;66122;47.130;16.844;2023-08-08T06:20:58;99978.03;;;14.78;91.37
77149;BME280;66122;47.130;16.844;2023-08-08T06:31:02;99998.19;;;15.47;89.62
77149;BME280;66122;47.130;16.844;2023-08-08T06:41:05;99997.72;;;16.27;82.81
77149;BME280;66122;47.130;16.844;2023-08-08T06:51:08;99995.59;;;16.44;79.83
77149;BME280;66122;47.130;16.844;2023-08-08T07:01:12;100017.09;;;16.55;77.44
77149;BME280;66122;47.130;16.844;2023-08-08T07:11:16;100026.13;;;17.24;74.20
77149;BME280;66122;47.130;16.844;2023-08-08T07:21:20;100022.94;;;17.65;72.28
77149;BME280;66122;47.130;16.844;2023-08-08T07:31:23;100023.50;;;18.24;72.50
77149;BME280;66122;47.130;16.844;2023-08-08T07:41:29;99988.53;;;17.47;74.59
77149;BME280;66122;47.130;16.844;2023-08-08T07:51:33;100004.00;;;18.11;69.55
77149;BME280;66122;47.130;16.844;2023-08-08T08:01:36;99982.91;;;19.13;65.41
77149;BME280;66122;47.130;16.844;2023-08-08T08:11:40;99984.78;;;20.04;60.95
77149;BME280;66122;47.130;16.844;2023-08-08T08:21:43;99976.13;;;20.50;53.56
77149;BME280;66122;47.130;16.844;2023-08-08T08:31:46;99982.91;;;20.54;56.58
77149;BME280;66122;47.130;16.844;2023-08-08T08:41:54;99945.16;;;21.12;55.71
77149;BME280;66122;47.130;16.844;2023-08-08T08:51:59;99948.75;;;21.86;57.16
77149;BME280;66122;47.130;16.844;2023-08-08T09:02:04;99940.25;;;20.49;58.92
77149;BME280;66122;47.130;16.844;2023-08-08T09:12:07;99952.25;;;21.22;51.91
77149;BME280;66122;47.130;16.844;2023-08-08T09:22:13;99928.41;;;21.27;49.68
77149;BME280;66122;47.130;16.844;2023-08-08T09:32:17;99927.88;;;21.24;49.71
77149;BME280;66122;47.130;16.844;2023-08-08T09:42:21;99938.63;;;22.61;47.88
77149;BME280;66122;47.130;16.844;2023-08-08T09:52:28;99933.06;;;23.23;43.52
77149;BME280;66122;47.130;16.844;2023-08-08T10:02:34;99932.75;;;23.34;40.67
77149;BME280;66122;47.130;16.844;2023-08-08T10:12:38;99904.09;;;22.72;40.27
77149;BME280;66122;47.130;16.844;2023-08-08T10:22:47;99907.81;;;23.74;36.85
77149;BME280;66122;47.130;16.844;2023-08-08T10:32:50;99894.94;;;23.43;37.61
77149;BME280;66122;47.130;16.844;2023-08-08T10:43:11;99892.72;;;23.38;39.09
77149;BME280;66122;47.130;16.844;2023-08-08T10:53:38;99879.19;;;23.04;38.40
77149;BME280;66122;47.130;16.844;2023-08-08T11:03:41;99862.78;;;23.06;39.98
77149;BME280;66122;47.130;16.844;2023-08-08T11:13:51;99864.81;;;24.38;38.37
77149;BME280;66122;47.130;16.844;2023-08-08T11:23:54;99852.53;;;23.93;37.87
77149;BME280;66122;47.130;16.844;2023-08-08T11:33:58;99857.50;;;24.87;36.77
77149;BME280;66122;47.130;16.844;2023-08-08T11:44:03;99843.19;;;22.78;42.73
77149;BME280;66122;47.130;16.844;2023-08-08T11:54:06;99837.38;;;22.73;42.04
77149;BME280;66122;47.130;16.844;2023-08-08T12:04:09;99819.94;;;22.24;41.54
77149;BME280;66122;47.130;16.844;2023-08-08T12:14:11;99816.06;;;22.87;41.23
77149;BME280;66122;47.130;16.844;2023-08-08T12:24:20;99794.50;;;24.77;34.02
77149;BME280;66122;47.130;16.844;2023-08-08T12:34:23;99786.81;;;25.83;33.51
77149;BME280;66122;47.130;16.844;2023-08-08T12:44:25;99791.97;;;25.31;36.04
77149;BME280;66122;47.130;16.844;2023-08-08T12:54:28;99781.84;;;24.37;37.12
77149;BME280;66122;47.130;16.844;2023-08-08T13:04:31;99783.53;;;25.25;37.10
77149;BME280;66122;47.130;16.844;2023-08-08T13:14:35;99784.34;;;25.96;34.99
77149;BME280;66122;47.130;16.844;2023-08-08T13:24:38;99774.94;;;25.14;36.00
77149;BME280;66122;47.130;16.844;2023-08-08T13:34:41;99774.56;;;26.70;33.33
77149;BME280;66122;47.130;16.844;2023-08-08T13:44:43;99740.59;;;26.80;33.90
77149;BME280;66122;47.130;16.844;2023-08-08T13:54:48;99754.50;;;27.30;32.89
77149;BME280;66122;47.130;16.844;2023-08-08T14:04:51;99750.84;;;27.23;32.27
77149;BME280;66122;47.130;16.844;2023-08-08T14:14:54;99767.59;;;24.51;36.30
77149;BME280;66122;47.130;16.844;2023-08-08T14:24:57;99744.66;;;26.32;35.04
77149;BME280;66122;47.130;16.844;2023-08-08T14:34:59;99736.41;;;25.18;33.50
77149;BME280;66122;47.130;16.844;2023-08-08T14:45:05;99730.31;;;25.47;34.83
77149;BME280;66122;47.130;16.844;2023-08-08T14:55:08;99744.53;;;27.37;33.11
77149;BME280;66122;47.130;16.844;2023-08-08T15:05:11;99719.97;;;26.19;33.66
77149;BME280;66122;47.130;16.844;2023-08-08T15:15:13;99696.53;;;26.85;32.13
77149;BME280;66122;47.130;16.844;2023-08-08T15:25:19;99708.09;;;25.44;33.65
77149;BME280;66122;47.130;16.844;2023-08-08T15:35:21;99716.66;;;24.85;36.24
77149;BME280;66122;47.130;16.844;2023-08-08T15:45:25;99707.06;;;25.22;36.71
77149;BME280;66122;47.130;16.844;2023-08-08T15:55:28;99719.53;;;25.00;39.95
77149;BME280;66122;47.130;16.844;2023-08-08T16:05:31;99724.25;;;24.43;43.59
77149;BME280;66122;47.130;16.844;2023-08-08T16:15:34;99711.09;;;23.91;45.03
77149;BME280;66122;47.130;16.844;2023-08-08T16:25:38;99711.06;;;24.48;43.43
77149;BME280;66122;47.130;16.844;2023-08-08T16:35:43;99726.22;;;22.68;48.08
77149;BME280;66122;47.130;16.844;2023-08-08T16:45:46;99740.59;;;21.99;50.82
77149;BME280;66122;47.130;16.844;2023-08-08T16:55:49;99741.78;;;21.69;53.20
77149;BME280;66122;47.130;16.844;2023-08-08T17:05:52;99731.31;;;21.48;57.98
77149;BME280;66122;47.130;16.844;2023-08-08T17:15:55;99718.00;;;20.92;61.31
77149;BME280;66122;47.130;16.844;2023-08-08T17:25:57;99723.75;;;20.79;60.63
77149;BME280;66122;47.130;16.844;2023-08-08T17:36:02;99715.25;;;20.18;63.49
77149;BME280;66122;47.130;16.844;2023-08-08T17:46:05;99735.53;;;19.55;68.48
77149;BME280;66122;47.130;16.844;2023-08-08T17:56:08;99740.56;;;19.29;69.88
77149;BME280;66122;47.130;16.844;2023-08-08T18:06:10;99719.34;;;18.76;71.37
77149;BME280;66122;47.130;16.844;2023-08-08T18:16:14;99739.13;;;18.54;73.45
77149;BME280;66122;47.130;16.844;2023-08-08T18:26:17;99753.09;;;18.27;76.80
77149;BME280;66122;47.130;16.844;2023-08-08T18:36:20;99753.63;;;18.01;79.49
77149;BME280;66122;47.130;16.844;2023-08-08T18:46:23;99735.41;;;17.63;79.95
77149;BME280;66122;47.130;16.844;2023-08-08T18:56:26;99751.41;;;17.42;81.69
77149;BME280;66122;47.130;16.844;2023-08-08T19:06:29;99755.47;;;17.14;83.27
77149;BME280;66122;47.130;16.844;2023-08-08T19:16:32;99758.16;;;16.81;87.13
77149;BME280;66122;47.130;16.844;2023-08-08T19:26:37;99743.91;;;16.58;88.61
77149;BME280;66122;47.130;16.844;2023-08-08T19:36:40;99756.31;;;16.48;90.11
77149;BME280;66122;47.130;16.844;2023-08-08T19:46:43;99751.44;;;16.53;88.17
77149;BME280;66122;47.130;16.844;2023-08-08T19:56:46;99779.22;;;16.74;86.03
77149;BME280;66122;47.130;16.844;2023-08-08T20:06:48;99773.50;;;16.67;85.15
77149;BME280;66122;47.130;16.844;2023-08-08T20:16:51;99806.72;;;16.76;85.07
77149;BME280;66122;47.130;16.844;2023-08-08T20:26:54;99774.34;;;16.57;85.02
77149;BME280;66122;47.130;16.844;2023-08-08T20:36:58;99771.13;;;16.40;85.78
77149;BME280;66122;47.130;16.844;2023-08-08T20:47:01;99788.91;;;16.42;86.24
77149;BME280;66122;47.130;16.844;2023-08-08T20:57:06;99777.03;;;16.22;86.78
77149;BME280;66122;47.130;16.844;2023-08-08T21:07:08;99773.41;;;15.88;92.68
77149;BME280;66122;47.130;16.844;2023-08-08T21:17:16;99794.13;;;15.97;89.68
77149;BME280;66122;47.130;16.844;2023-08-08T21:27:19;99764.66;;;15.86;90.61
77149;BME280;66122;47.130;16.844;2023-08-08T21:37:21;99799.00;;;16.03;92.09
77149;BME280;66122;47.130;16.844;2023-08-08T21:47:24;99756.63;;;15.14;99.17
77149;BME280;66122;47.130;16.844;2023-08-08T21:57:27;99807.69;;;15.10;99.06
77149;BME280;66122;47.130;16.844;2023-08-08T22:07:32;99786.78;;;14.78;99.10
77149;BME280;66122;47.130;16.844;2023-08-08T22:17:34;99785.06;;;14.27;100.00
77149;BME280;66122;47.130;16.844;2023-08-08T22:27:37;99799.50;;;14.50;100.00
77149;BME280;66122;47.130;16.844;2023-08-08T22:37:40;99797.63;;;14.12;100.00
77149;BME280;66122;47.130;16.844;2023-08-08T22:47:43;99832.47;;;13.96;100.00
77149;BME280;66122;47.130;16.844;2023-08-08T22:57:45;99790.06;;;13.25;100.00
77149;BME280;66122;47.130;16.844;2023-08-08T23:07:48;99815.97;;;13.77;100.00
77149;BME280;66122;47.130;16.844;2023-08-08T23:17:52;99789.66;;;13.73;100.00
77149;BME280;66122;47.130;16.844;2023-08-08T23:27:54;99775.84;;;13.53;100.00
77149;BME280;66122;47.130;16.844;2023-08-08T23:37:57;99778.53;;;12.56;100.00
77149;BME280;66122;47.130;16.844;2023-08-08T23:48:00;99808.63;;;12.99;100.00
77149;BME280;66122;47.130;16.844;2023-08-08T23:58:03;99786.59;;;13.11;100.00
